Federal Adi — V3TO6 — position and weather

sailwx.info

Track history (hours):
 
Tides and Currents Weather Stations Pressure Air Temp Water Temp Dewpoint Dewpoint Depression Visibility Wind Speed Wind Dir Waves Ship Positions

Federal Adi

Last reported at 2017-Nov-17 18:46 UTC. Time now 2017-Nov-18 06:42 UTC.
Position N 40°58' E 028°60'.

Length 183 m; draft 10.6 m.

Type: Cargo ship. MMSI: 312264000.

Date/timePositionNaut miles runAvg speedWind from/ knotsBaromVisibWave heightAir tempDewpointWater temp
2017-Nov-17 18:46N 40°58' E 028°60'4 5.5
2017-Nov-17 18:06N 40°56' E 028°57'1 8.1
2017-Nov-17 18:00N 40°56' E 028°57'2 0.3
2017-Nov-17 12:43N 40°58' E 028°56'0 0.0
2017-Nov-17 12:28N 40°58' E 028°56'0 0.0
2017-Nov-17 11:44N 40°58' E 028°56'0 0.0
2017-Nov-17 11:28N 40°58' E 028°56'1 0.2
2017-Nov-17 05:59N 40°57' E 028°57'3 6.1
2017-Nov-17 05:29N 40°54' E 028°59'8 6.3
2017-Nov-17 04:18N 40°48' E 028°55'0 0.8
2017-Nov-17 03:52N 40°48' E 028°55'0 0.4
2017-Nov-17 03:22N 40°48' E 028°55'0 0.4
2017-Nov-17 03:00N 40°48' E 028°55'0 0.4
2017-Nov-17 02:31N 40°48' E 028°55'0 0.5
2017-Nov-17 02:00N 40°48' E 028°56'0 0.5
2017-Nov-17 01:31N 40°48' E 028°56'0 0.6
2017-Nov-17 01:00N 40°48' E 028°56'0 0.5
2017-Nov-17 00:31N 40°48' E 028°57'0 0.5
2017-Nov-17 00:01N 40°48' E 028°57'0 0.5
2017-Nov-16 23:30N 40°48' E 028°57'0 0.5
2017-Nov-16 23:00N 40°48' E 028°58'0 0.6
2017-Nov-16 22:31N 40°48' E 028°58'0 0.5
2017-Nov-16 22:01N 40°48' E 028°58'0 0.5
2017-Nov-16 21:17N 40°49' E 028°59'0 0.9
2017-Nov-16 21:00N 40°49' E 028°58'2 4.6
2017-Nov-16 20:31N 40°51' E 028°57'5 9.1
2017-Nov-16 19:55N 40°56' E 028°56'5 5.0
2017-Nov-16 18:57N 40°52' E 028°53'  
2017-Nov-08 17:24N 35°21' W 006°22'65 9.5
2017-Nov-08 10:35N 34°25' W 007°01'1 9.7
2017-Nov-08 10:28N 34°24' W 007°02'  
Track history (hours):
 
Tides and Currents Weather Stations Pressure Air Temp Water Temp Dewpoint Dewpoint Depression Visibility Wind Speed Wind Dir Waves Ship Positions

Federal Adi

Last reported at 2017-Nov-17 18:46 UTC. Time now 2017-Nov-18 06:42 UTC.
Position N 40°58' E 028°60'.

Length 183 m; draft 10.6 m.

Type: Cargo ship. MMSI: 312264000.

Date/timePositionNaut miles runAvg speedWind from/ knotsBaromVisibWave heightAir tempDewpointWater temp
2017-Nov-17 18:46N 40°58' E 028°60'4 5.5
2017-Nov-17 18:06N 40°56' E 028°57'1 8.1
2017-Nov-17 18:00N 40°56' E 028°57'2 0.3
2017-Nov-17 12:43N 40°58' E 028°56'0 0.0
2017-Nov-17 12:28N 40°58' E 028°56'0 0.0
2017-Nov-17 11:44N 40°58' E 028°56'0 0.0
2017-Nov-17 11:28N 40°58' E 028°56'1 0.2
2017-Nov-17 05:59N 40°57' E 028°57'3 6.1
2017-Nov-17 05:29N 40°54' E 028°59'8 6.3
2017-Nov-17 04:18N 40°48' E 028°55'0 0.8
2017-Nov-17 03:52N 40°48' E 028°55'0 0.4
2017-Nov-17 03:22N 40°48' E 028°55'0 0.4
2017-Nov-17 03:00N 40°48' E 028°55'0 0.4
2017-Nov-17 02:31N 40°48' E 028°55'0 0.5
2017-Nov-17 02:00N 40°48' E 028°56'0 0.5
2017-Nov-17 01:31N 40°48' E 028°56'0 0.6
2017-Nov-17 01:00N 40°48' E 028°56'0 0.5
2017-Nov-17 00:31N 40°48' E 028°57'0 0.5
2017-Nov-17 00:01N 40°48' E 028°57'0 0.5
2017-Nov-16 23:30N 40°48' E 028°57'0 0.5
2017-Nov-16 23:00N 40°48' E 028°58'0 0.6
2017-Nov-16 22:31N 40°48' E 028°58'0 0.5
2017-Nov-16 22:01N 40°48' E 028°58'0 0.5
2017-Nov-16 21:17N 40°49' E 028°59'0 0.9
2017-Nov-16 21:00N 40°49' E 028°58'2 4.6
2017-Nov-16 20:31N 40°51' E 028°57'5 9.1
2017-Nov-16 19:55N 40°56' E 028°56'5 5.0
2017-Nov-16 18:57N 40°52' E 028°53'  
2017-Nov-08 17:24N 35°21' W 006°22'65 9.5
2017-Nov-08 10:35N 34°25' W 007°01'1 9.7
2017-Nov-08 10:28N 34°24' W 007°02'  

Dump ship's entire track history